sensor_id;sensor_type;location;lat;lon;timestamp;pressure;altitude;pressure_sealevel;temperature;humidity
16821;BME280;8527;49.740;6.604;2023-02-04T00:00:45;101272.47;;;8.23;100.00
16821;BME280;8527;49.740;6.604;2023-02-04T00:05:46;101272.38;;;8.24;100.00
16821;BME280;8527;49.740;6.604;2023-02-04T00:10:48;101263.47;;;8.25;100.00
16821;BME280;8527;49.740;6.604;2023-02-04T00:15:46;101261.66;;;8.26;100.00
16821;BME280;8527;49.740;6.604;2023-02-04T00:20:45;101263.34;;;8.27;100.00
16821;BME280;8527;49.740;6.604;2023-02-04T00:25:44;101265.88;;;8.28;100.00
16821;BME280;8527;49.740;6.604;2023-02-04T00:30:44;101265.06;;;8.28;100.00
16821;BME280;8527;49.740;6.604;2023-02-04T00:35:44;101253.50;;;8.29;100.00
16821;BME280;8527;49.740;6.604;2023-02-04T00:40:42;101255.53;;;8.25;100.00
16821;BME280;8527;49.740;6.604;2023-02-04T00:45:40;101252.03;;;8.25;100.00
16821;BME280;8527;49.740;6.604;2023-02-04T00:50:42;101245.78;;;8.26;100.00
16821;BME280;8527;49.740;6.604;2023-02-04T00:55:43;101245.69;;;8.27;100.00
16821;BME280;8527;49.740;6.604;2023-02-04T01:00:43;101246.66;;;8.26;100.00
16821;BME280;8527;49.740;6.604;2023-02-04T01:05:46;101256.03;;;8.30;100.00
16821;BME280;8527;49.740;6.604;2023-02-04T01:10:52;101258.66;;;8.30;100.00
16821;BME280;8527;49.740;6.604;2023-02-04T01:15:53;101266.72;;;8.29;100.00
16821;BME280;8527;49.740;6.604;2023-02-04T01:20:54;101257.22;;;8.26;100.00
16821;BME280;8527;49.740;6.604;2023-02-04T01:25:56;101268.28;;;8.31;100.00
16821;BME280;8527;49.740;6.604;2023-02-04T01:30:57;101257.00;;;8.29;100.00
16821;BME280;8527;49.740;6.604;2023-02-04T01:35:58;101275.63;;;8.28;100.00
16821;BME280;8527;49.740;6.604;2023-02-04T01:41:04;101276.34;;;8.30;100.00
16821;BME280;8527;49.740;6.604;2023-02-04T01:46:11;101282.22;;;8.34;100.00
16821;BME280;8527;49.740;6.604;2023-02-04T01:51:15;101287.41;;;8.35;100.00
16821;BME280;8527;49.740;6.604;2023-02-04T01:56:21;101287.16;;;8.38;100.00
16821;BME280;8527;49.740;6.604;2023-02-04T02:01:36;101291.75;;;8.36;100.00
16821;BME280;8527;49.740;6.604;2023-02-04T02:06:44;101281.63;;;8.30;100.00
16821;BME280;8527;49.740;6.604;2023-02-04T02:11:44;101289.44;;;8.31;100.00
16821;BME280;8527;49.740;6.604;2023-02-04T02:16:45;101291.75;;;8.36;100.00
16821;BME280;8527;49.740;6.604;2023-02-04T02:21:56;101275.63;;;8.28;100.00
16821;BME280;8527;49.740;6.604;2023-02-04T02:27:03;101275.38;;;8.31;100.00
16821;BME280;8527;49.740;6.604;2023-02-04T02:32:03;101283.19;;;8.33;100.00
16821;BME280;8527;49.740;6.604;2023-02-04T02:37:10;101283.94;;;8.35;100.00
16821;BME280;8527;49.740;6.604;2023-02-04T02:42:12;101287.66;;;8.32;100.00
16821;BME280;8527;49.740;6.604;2023-02-04T02:47:12;101312.03;;;8.24;100.00
16821;BME280;8527;49.740;6.604;2023-02-04T02:52:12;101317.78;;;7.94;100.00
16821;BME280;8527;49.740;6.604;2023-02-04T02:57:27;101323.00;;;7.82;100.00
16821;BME280;8527;49.740;6.604;2023-02-04T03:02:31;101323.50;;;7.87;100.00
16821;BME280;8527;49.740;6.604;2023-02-04T03:07:34;101324.19;;;7.78;100.00
16821;BME280;8527;49.740;6.604;2023-02-04T03:12:38;101337.16;;;7.81;100.00
16821;BME280;8527;49.740;6.604;2023-02-04T03:17:37;101340.44;;;7.85;100.00
16821;BME280;8527;49.740;6.604;2023-02-04T03:22:39;101348.34;;;7.85;100.00
16821;BME280;8527;49.740;6.604;2023-02-04T03:27:45;101362.94;;;7.91;100.00
16821;BME280;8527;49.740;6.604;2023-02-04T03:32:56;101366.50;;;7.89;100.00
16821;BME280;8527;49.740;6.604;2023-02-04T03:37:59;101364.47;;;7.93;100.00
16821;BME280;8527;49.740;6.604;2023-02-04T03:43:03;101375.28;;;7.90;100.00
16821;BME280;8527;49.740;6.604;2023-02-04T03:48:02;101375.50;;;7.87;100.00
16821;BME280;8527;49.740;6.604;2023-02-04T03:53:06;101376.63;;;7.96;100.00
16821;BME280;8527;49.740;6.604;2023-02-04T03:58:10;101382.88;;;7.95;100.00
16821;BME280;8527;49.740;6.604;2023-02-04T04:03:12;101381.63;;;7.87;100.00
16821;BME280;8527;49.740;6.604;2023-02-04T04:08:10;101398.56;;;7.85;100.00
16821;BME280;8527;49.740;6.604;2023-02-04T04:13:11;101410.69;;;7.87;100.00
16821;BME280;8527;49.740;6.604;2023-02-04T04:18:18;101407.00;;;7.77;100.00
16821;BME280;8527;49.740;6.604;2023-02-04T04:23:25;101405.88;;;7.68;100.00
16821;BME280;8527;49.740;6.604;2023-02-04T04:28:26;101413.59;;;7.58;100.00
16821;BME280;8527;49.740;6.604;2023-02-04T04:33:29;101417.97;;;7.46;100.00
16821;BME280;8527;49.740;6.604;2023-02-04T04:38:37;101432.44;;;7.41;100.00
16821;BME280;8527;49.740;6.604;2023-02-04T04:43:50;101437.78;;;7.26;100.00
16821;BME280;8527;49.740;6.604;2023-02-04T04:48:51;101437.25;;;7.21;100.00
16821;BME280;8527;49.740;6.604;2023-02-04T04:53:50;101439.13;;;7.06;100.00
16821;BME280;8527;49.740;6.604;2023-02-04T04:58:51;101447.56;;;6.85;100.00
16821;BME280;8527;49.740;6.604;2023-02-04T05:03:55;101442.97;;;6.74;100.00
16821;BME280;8527;49.740;6.604;2023-02-04T05:08:54;101436.19;;;6.57;100.00
16821;BME280;8527;49.740;6.604;2023-02-04T05:13:55;101449.06;;;6.62;100.00
16821;BME280;8527;49.740;6.604;2023-02-04T05:18:56;101452.25;;;6.67;100.00
16821;BME280;8527;49.740;6.604;2023-02-04T05:24:06;101442.69;;;6.79;100.00
16821;BME280;8527;49.740;6.604;2023-02-04T05:29:17;101444.63;;;6.90;100.00
16821;BME280;8527;49.740;6.604;2023-02-04T05:34:19;101441.34;;;6.99;100.00
16821;BME280;8527;49.740;6.604;2023-02-04T05:39:17;101446.41;;;6.89;100.00
16821;BME280;8527;49.740;6.604;2023-02-04T05:44:24;101462.31;;;6.88;100.00
16821;BME280;8527;49.740;6.604;2023-02-04T05:49:22;101473.09;;;6.85;100.00
16821;BME280;8527;49.740;6.604;2023-02-04T05:54:24;101465.53;;;6.93;100.00
16821;BME280;8527;49.740;6.604;2023-02-04T05:59:25;101469.63;;;6.84;100.00
16821;BME280;8527;49.740;6.604;2023-02-04T06:04:24;101478.91;;;6.90;100.00
16821;BME280;8527;49.740;6.604;2023-02-04T06:09:22;101480.09;;;6.99;100.00
16821;BME280;8527;49.740;6.604;2023-02-04T06:14:21;101478.00;;;7.04;100.00
16821;BME280;8527;49.740;6.604;2023-02-04T06:19:22;101483.38;;;7.02;100.00
16821;BME280;8527;49.740;6.604;2023-02-04T06:24:22;101488.63;;;6.89;100.00
16821;BME280;8527;49.740;6.604;2023-02-04T06:29:23;101488.38;;;6.80;100.00
16821;BME280;8527;49.740;6.604;2023-02-04T06:34:24;101501.41;;;6.68;100.00
16821;BME280;8527;49.740;6.604;2023-02-04T06:39:23;101500.84;;;6.63;100.00
16821;BME280;8527;49.740;6.604;2023-02-04T06:44:21;101500.72;;;6.52;100.00
16821;BME280;8527;49.740;6.604;2023-02-04T06:49:20;101495.28;;;6.40;100.00
16821;BME280;8527;49.740;6.604;2023-02-04T06:54:22;101505.47;;;6.32;100.00
16821;BME280;8527;49.740;6.604;2023-02-04T06:59:20;101527.13;;;6.23;100.00
16821;BME280;8527;49.740;6.604;2023-02-04T07:04:20;101533.34;;;6.07;100.00
16821;BME280;8527;49.740;6.604;2023-02-04T07:09:18;101541.34;;;6.05;100.00
16821;BME280;8527;49.740;6.604;2023-02-04T07:14:20;101554.91;;;6.14;100.00
16821;BME280;8527;49.740;6.604;2023-02-04T07:19:19;101568.69;;;5.88;100.00
16821;BME280;8527;49.740;6.604;2023-02-04T07:24:18;101570.38;;;5.89;100.00
16821;BME280;8527;49.740;6.604;2023-02-04T07:29:16;101580.25;;;5.86;100.00
16821;BME280;8527;49.740;6.604;2023-02-04T07:34:21;101591.84;;;5.98;100.00
16821;BME280;8527;49.740;6.604;2023-02-04T07:39:22;101591.22;;;6.09;100.00
16821;BME280;8527;49.740;6.604;2023-02-04T07:44:24;101593.03;;;5.92;100.00
16821;BME280;8527;49.740;6.604;2023-02-04T07:49:28;101603.22;;;5.98;100.00
16821;BME280;8527;49.740;6.604;2023-02-04T07:54:27;101607.31;;;6.18;100.00
16821;BME280;8527;49.740;6.604;2023-02-04T07:59:25;101610.63;;;6.37;100.00
16821;BME280;8527;49.740;6.604;2023-02-04T08:04:26;101616.34;;;6.43;99.77
16821;BME280;8527;49.740;6.604;2023-02-04T08:09:25;101616.72;;;6.66;100.00
16821;BME280;8527;49.740;6.604;2023-02-04T08:14:29;101626.66;;;6.75;98.73
16821;BME280;8527;49.740;6.604;2023-02-04T08:19:30;101625.00;;;6.60;98.14
16821;BME280;8527;49.740;6.604;2023-02-04T08:24:28;101634.97;;;6.84;99.65
16821;BME280;8527;49.740;6.604;2023-02-04T08:29:32;101643.50;;;7.02;99.00
16821;BME280;8527;49.740;6.604;2023-02-04T08:34:36;101651.28;;;7.18;98.51
16821;BME280;8527;49.740;6.604;2023-02-04T08:39:39;101654.69;;;7.33;98.61
16821;BME280;8527;49.740;6.604;2023-02-04T08:44:40;101659.59;;;7.12;95.40
16821;BME280;8527;49.740;6.604;2023-02-04T08:49:44;101652.41;;;7.14;97.65
16821;BME280;8527;49.740;6.604;2023-02-04T08:54:46;101650.63;;;7.14;98.45
16821;BME280;8527;49.740;6.604;2023-02-04T08:59:48;101655.53;;;7.21;96.87
16821;BME280;8527;49.740;6.604;2023-02-04T09:04:49;101663.44;;;7.21;95.53
16821;BME280;8527;49.740;6.604;2023-02-04T09:09:56;101671.41;;;7.34;94.76
16821;BME280;8527;49.740;6.604;2023-02-04T09:15:00;101673.19;;;7.33;95.93
16821;BME280;8527;49.740;6.604;2023-02-04T09:20:03;101672.59;;;7.42;95.09
16821;BME280;8527;49.740;6.604;2023-02-04T09:25:01;101673.84;;;7.77;92.07
16821;BME280;8527;49.740;6.604;2023-02-04T09:30:00;101683.13;;;8.10;87.28
16821;BME280;8527;49.740;6.604;2023-02-04T09:35:04;101684.91;;;8.49;89.83
16821;BME280;8527;49.740;6.604;2023-02-04T09:40:06;101682.59;;;8.83;87.87
16821;BME280;8527;49.740;6.604;2023-02-04T09:45:08;101696.66;;;8.96;85.16
16821;BME280;8527;49.740;6.604;2023-02-04T09:50:18;101696.41;;;9.37;87.26
16821;BME280;8527;49.740;6.604;2023-02-04T09:55:40;101701.28;;;9.43;82.76
16821;BME280;8527;49.740;6.604;2023-02-04T10:00:39;101706.72;;;9.53;75.78
16821;BME280;8527;49.740;6.604;2023-02-04T10:05:44;101717.75;;;9.95;79.21
16821;BME280;8527;49.740;6.604;2023-02-04T10:10:44;101717.09;;;10.16;75.05
16821;BME280;8527;49.740;6.604;2023-02-04T10:15:44;101717.00;;;10.40;75.64
16821;BME280;8527;49.740;6.604;2023-02-04T10:20:45;101723.31;;;10.04;74.17
16821;BME280;8527;49.740;6.604;2023-02-04T10:25:44;101725.88;;;10.17;74.47
16821;BME280;8527;49.740;6.604;2023-02-04T10:30:42;101717.44;;;10.11;73.95
16821;BME280;8527;49.740;6.604;2023-02-04T10:35:50;101715.72;;;10.58;73.72
16821;BME280;8527;49.740;6.604;2023-02-04T10:41:11;101718.31;;;10.35;71.03
16821;BME280;8527;49.740;6.604;2023-02-04T10:46:10;101730.03;;;10.32;73.36
16821;BME280;8527;49.740;6.604;2023-02-04T10:51:18;101727.41;;;10.08;72.71
16821;BME280;8527;49.740;6.604;2023-02-04T10:56:20;101731.88;;;9.71;72.34
16821;BME280;8527;49.740;6.604;2023-02-04T11:01:19;101727.06;;;9.52;71.22
16821;BME280;8527;49.740;6.604;2023-02-04T11:06:23;101726.34;;;9.13;72.66
16821;BME280;8527;49.740;6.604;2023-02-04T11:11:23;101729.00;;;9.50;72.58
16821;BME280;8527;49.740;6.604;2023-02-04T11:16:24;101731.81;;;9.60;72.89
16821;BME280;8527;49.740;6.604;2023-02-04T11:21:41;101717.25;;;9.66;71.51
16821;BME280;8527;49.740;6.604;2023-02-04T11:26:40;101720.88;;;9.65;73.40
16821;BME280;8527;49.740;6.604;2023-02-04T11:31:49;101719.81;;;9.43;70.39
16821;BME280;8527;49.740;6.604;2023-02-04T11:37:14;101714.47;;;9.92;71.95
16821;BME280;8527;49.740;6.604;2023-02-04T11:42:37;101714.75;;;9.64;69.86
16821;BME280;8527;49.740;6.604;2023-02-04T11:47:37;101715.41;;;9.55;71.16
16821;BME280;8527;49.740;6.604;2023-02-04T11:52:40;101720.66;;;9.68;71.85
16821;BME280;8527;49.740;6.604;2023-02-04T11:57:40;101719.25;;;9.51;69.81
16821;BME280;8527;49.740;6.604;2023-02-04T12:02:44;101718.91;;;9.80;71.58
16821;BME280;8527;49.740;6.604;2023-02-04T12:07:48;101712.81;;;9.66;71.76
16821;BME280;8527;49.740;6.604;2023-02-04T12:12:49;101712.63;;;9.81;69.96
16821;BME280;8527;49.740;6.604;2023-02-04T12:18:03;101712.97;;;9.76;70.56
16821;BME280;8527;49.740;6.604;2023-02-04T12:23:04;101714.44;;;9.56;69.73
16821;BME280;8527;49.740;6.604;2023-02-04T12:28:03;101722.78;;;9.63;70.02
16821;BME280;8527;49.740;6.604;2023-02-04T12:33:05;101723.03;;;9.60;70.82
16821;BME280;8527;49.740;6.604;2023-02-04T12:38:06;101712.59;;;9.69;69.31
16821;BME280;8527;49.740;6.604;2023-02-04T12:43:05;101711.81;;;9.80;68.15
16821;BME280;8527;49.740;6.604;2023-02-04T12:48:03;101720.03;;;9.64;68.60
16821;BME280;8527;49.740;6.604;2023-02-04T12:53:04;101713.28;;;9.96;68.32
16821;BME280;8527;49.740;6.604;2023-02-04T12:58:05;101706.91;;;9.98;68.97
16821;BME280;8527;49.740;6.604;2023-02-04T13:03:12;101713.59;;;10.27;69.30
16821;BME280;8527;49.740;6.604;2023-02-04T13:08:17;101703.13;;;9.90;68.02
16821;BME280;8527;49.740;6.604;2023-02-04T13:13:19;101706.38;;;9.82;67.59
16821;BME280;8527;49.740;6.604;2023-02-04T13:18:25;101706.44;;;9.69;67.55
16821;BME280;8527;49.740;6.604;2023-02-04T13:23:29;101703.34;;;9.51;67.65
16821;BME280;8527;49.740;6.604;2023-02-04T13:28:31;101703.22;;;9.77;67.77
16821;BME280;8527;49.740;6.604;2023-02-04T13:33:32;101703.66;;;9.95;67.98
16821;BME280;8527;49.740;6.604;2023-02-04T13:38:39;101713.88;;;9.88;67.79
16821;BME280;8527;49.740;6.604;2023-02-04T13:43:43;101713.88;;;9.64;67.97
16821;BME280;8527;49.740;6.604;2023-02-04T13:48:42;101702.94;;;9.68;66.95
16821;BME280;8527;49.740;6.604;2023-02-04T13:53:50;101708.72;;;9.98;69.11
16821;BME280;8527;49.740;6.604;2023-02-04T13:58:51;101714.94;;;9.85;68.94
16821;BME280;8527;49.740;6.604;2023-02-04T14:03:52;101715.47;;;10.02;67.94
16821;BME280;8527;49.740;6.604;2023-02-04T14:08:56;101717.09;;;10.16;68.75
16821;BME280;8527;49.740;6.604;2023-02-04T14:13:57;101714.16;;;10.08;67.04
16821;BME280;8527;49.740;6.604;2023-02-04T14:18:56;101717.16;;;10.03;68.67
16821;BME280;8527;49.740;6.604;2023-02-04T14:24:02;101713.69;;;10.03;67.85
16821;BME280;8527;49.740;6.604;2023-02-04T14:29:04;101708.38;;;10.03;66.68
16821;BME280;8527;49.740;6.604;2023-02-04T14:34:02;101706.59;;;10.14;66.86
16821;BME280;8527;49.740;6.604;2023-02-04T14:39:03;101708.63;;;10.11;67.02
16821;BME280;8527;49.740;6.604;2023-02-04T14:44:08;101701.25;;;10.03;66.34
16821;BME280;8527;49.740;6.604;2023-02-04T14:49:06;101705.00;;;10.01;67.71
16821;BME280;8527;49.740;6.604;2023-02-04T14:54:05;101698.59;;;10.03;67.49
16821;BME280;8527;49.740;6.604;2023-02-04T14:59:09;101698.66;;;9.79;67.36
16821;BME280;8527;49.740;6.604;2023-02-04T15:04:09;101694.69;;;9.84;67.26
16821;BME280;8527;49.740;6.604;2023-02-04T15:09:14;101697.44;;;9.83;67.54
16821;BME280;8527;49.740;6.604;2023-02-04T15:14:15;101695.06;;;9.91;67.76
16821;BME280;8527;49.740;6.604;2023-02-04T15:19:15;101698.34;;;9.95;68.92
16821;BME280;8527;49.740;6.604;2023-02-04T15:24:17;101696.91;;;9.66;68.55
16821;BME280;8527;49.740;6.604;2023-02-04T15:29:22;101707.91;;;9.73;69.21
16821;BME280;8527;49.740;6.604;2023-02-04T15:34:28;101704.78;;;9.79;68.52
16821;BME280;8527;49.740;6.604;2023-02-04T15:39:29;101711.41;;;9.74;69.67
16821;BME280;8527;49.740;6.604;2023-02-04T15:44:30;101725.53;;;9.85;69.31
16821;BME280;8527;49.740;6.604;2023-02-04T15:49:32;101728.88;;;9.76;69.54
16821;BME280;8527;49.740;6.604;2023-02-04T15:54:30;101737.34;;;9.81;70.32
16821;BME280;8527;49.740;6.604;2023-02-04T15:59:31;101734.00;;;9.91;70.80
16821;BME280;8527;49.740;6.604;2023-02-04T16:04:30;101735.66;;;9.80;71.45
16821;BME280;8527;49.740;6.604;2023-02-04T16:09:28;101742.75;;;9.80;73.07
16821;BME280;8527;49.740;6.604;2023-02-04T16:14:26;101739.94;;;9.70;74.40
16821;BME280;8527;49.740;6.604;2023-02-04T16:19:28;101739.38;;;9.78;74.57
16821;BME280;8527;49.740;6.604;2023-02-04T16:24:26;101730.78;;;9.74;75.88
16821;BME280;8527;49.740;6.604;2023-02-04T16:29:24;101738.03;;;9.72;77.45
16821;BME280;8527;49.740;6.604;2023-02-04T16:34:23;101740.03;;;9.68;78.38
16821;BME280;8527;49.740;6.604;2023-02-04T16:39:25;101746.88;;;9.60;78.43
16821;BME280;8527;49.740;6.604;2023-02-04T16:44:23;101753.06;;;9.47;79.45
16821;BME280;8527;49.740;6.604;2023-02-04T16:49:25;101762.06;;;9.45;79.28
16821;BME280;8527;49.740;6.604;2023-02-04T16:54:26;101762.22;;;9.30;79.90
16821;BME280;8527;49.740;6.604;2023-02-04T16:59:25;101766.78;;;9.28;80.61
16821;BME280;8527;49.740;6.604;2023-02-04T17:04:29;101770.81;;;9.34;80.45
16821;BME280;8527;49.740;6.604;2023-02-04T17:09:31;101769.44;;;9.28;80.46
16821;BME280;8527;49.740;6.604;2023-02-04T17:14:31;101770.41;;;9.14;81.05
16821;BME280;8527;49.740;6.604;2023-02-04T17:19:30;101782.69;;;9.15;80.62
16821;BME280;8527;49.740;6.604;2023-02-04T17:24:30;101788.75;;;9.17;79.81
16821;BME280;8527;49.740;6.604;2023-02-04T17:29:38;101776.88;;;9.10;79.70
16821;BME280;8527;49.740;6.604;2023-02-04T17:34:36;101786.34;;;9.01;80.63
16821;BME280;8527;49.740;6.604;2023-02-04T17:39:40;101781.34;;;8.96;81.32
16821;BME280;8527;49.740;6.604;2023-02-04T17:44:41;101788.34;;;8.84;82.00
16821;BME280;8527;49.740;6.604;2023-02-04T17:49:39;101791.75;;;8.86;83.21
16821;BME280;8527;49.740;6.604;2023-02-04T17:54:40;101795.78;;;8.92;82.55
16821;BME280;8527;49.740;6.604;2023-02-04T17:59:39;101799.69;;;8.86;82.23
16821;BME280;8527;49.740;6.604;2023-02-04T18:04:38;101797.78;;;8.89;82.40
16821;BME280;8527;49.740;6.604;2023-02-04T18:09:39;101806.75;;;8.86;82.30
16821;BME280;8527;49.740;6.604;2023-02-04T18:14:40;101799.16;;;8.81;82.09
16821;BME280;8527;49.740;6.604;2023-02-04T18:19:40;101792.59;;;8.74;82.64
16821;BME280;8527;49.740;6.604;2023-02-04T18:24:41;101800.63;;;8.72;82.39
16821;BME280;8527;49.740;6.604;2023-02-04T18:29:47;101799.25;;;8.67;83.24
16821;BME280;8527;49.740;6.604;2023-02-04T18:34:47;101792.16;;;8.67;83.45
16821;BME280;8527;49.740;6.604;2023-02-04T18:39:49;101795.66;;;8.68;83.59
16821;BME280;8527;49.740;6.604;2023-02-04T18:44:50;101792.06;;;8.56;82.92
16821;BME280;8527;49.740;6.604;2023-02-04T18:49:51;101802.34;;;8.46;83.61
16821;BME280;8527;49.740;6.604;2023-02-04T18:54:50;101798.88;;;8.45;83.25
16821;BME280;8527;49.740;6.604;2023-02-04T18:59:52;101799.28;;;8.39;83.50
16821;BME280;8527;49.740;6.604;2023-02-04T19:04:53;101797.28;;;8.43;84.21
16821;BME280;8527;49.740;6.604;2023-02-04T19:09:55;101788.47;;;8.29;84.75
16821;BME280;8527;49.740;6.604;2023-02-04T19:14:57;101788.25;;;8.33;84.86
16821;BME280;8527;49.740;6.604;2023-02-04T19:19:57;101791.72;;;8.20;85.86
16821;BME280;8527;49.740;6.604;2023-02-04T19:24:59;101802.81;;;8.12;86.23
16821;BME280;8527;49.740;6.604;2023-02-04T19:30:01;101808.66;;;8.18;86.24
16821;BME280;8527;49.740;6.604;2023-02-04T19:35:24;101811.31;;;8.18;85.81
16821;BME280;8527;49.740;6.604;2023-02-04T19:40:27;101810.97;;;8.09;85.87
16821;BME280;8527;49.740;6.604;2023-02-04T19:45:28;101796.88;;;8.09;86.32
16821;BME280;8527;49.740;6.604;2023-02-04T19:50:28;101797.81;;;7.95;86.24
16821;BME280;8527;49.740;6.604;2023-02-04T19:55:29;101790.59;;;7.84;86.25
16821;BME280;8527;49.740;6.604;2023-02-04T20:00:58;101796.78;;;7.83;86.80
16821;BME280;8527;49.740;6.604;2023-02-04T20:06:00;101798.41;;;7.85;86.09
16821;BME280;8527;49.740;6.604;2023-02-04T20:11:00;101799.56;;;7.81;86.14
16821;BME280;8527;49.740;6.604;2023-02-04T20:16:32;101803.81;;;7.69;86.17
16821;BME280;8527;49.740;6.604;2023-02-04T20:21:38;101819.88;;;7.66;86.35
16821;BME280;8527;49.740;6.604;2023-02-04T20:26:36;101814.38;;;7.69;86.30
16821;BME280;8527;49.740;6.604;2023-02-04T20:31:38;101820.72;;;7.67;86.28
16821;BME280;8527;49.740;6.604;2023-02-04T20:36:41;101814.22;;;7.58;86.58
16821;BME280;8527;49.740;6.604;2023-02-04T20:41:41;101806.28;;;7.58;86.89
16821;BME280;8527;49.740;6.604;2023-02-04T20:46:42;101810.38;;;7.49;86.80
16821;BME280;8527;49.740;6.604;2023-02-04T20:51:41;101818.28;;;7.49;87.71
16821;BME280;8527;49.740;6.604;2023-02-04T20:56:39;101824.63;;;7.46;86.87
16821;BME280;8527;49.740;6.604;2023-02-04T21:01:39;101831.63;;;7.48;87.26
16821;BME280;8527;49.740;6.604;2023-02-04T21:06:41;101818.41;;;7.48;86.85
16821;BME280;8527;49.740;6.604;2023-02-04T21:11:40;101824.63;;;7.46;87.20
16821;BME280;8527;49.740;6.604;2023-02-04T21:16:44;101822.28;;;7.42;87.33
16821;BME280;8527;49.740;6.604;2023-02-04T21:21:45;101828.84;;;7.49;87.19
16821;BME280;8527;49.740;6.604;2023-02-04T21:26:46;101823.03;;;7.44;86.71
16821;BME280;8527;49.740;6.604;2023-02-04T21:31:45;101818.69;;;7.43;87.40
16821;BME280;8527;49.740;6.604;2023-02-04T21:36:46;101821.03;;;7.33;88.22
16821;BME280;8527;49.740;6.604;2023-02-04T21:41:44;101822.13;;;7.16;88.48
16821;BME280;8527;49.740;6.604;2023-02-04T21:47:03;101820.09;;;7.20;88.84
16821;BME280;8527;49.740;6.604;2023-02-04T21:52:09;101818.06;;;7.10;89.40
16821;BME280;8527;49.740;6.604;2023-02-04T21:57:09;101823.63;;;7.06;89.75
16821;BME280;8527;49.740;6.604;2023-02-04T22:02:09;101833.91;;;7.10;89.48
16821;BME280;8527;49.740;6.604;2023-02-04T22:07:10;101832.28;;;7.08;89.97
16821;BME280;8527;49.740;6.604;2023-02-04T22:12:09;101825.38;;;7.05;90.04
16821;BME280;8527;49.740;6.604;2023-02-04T22:17:09;101828.31;;;7.00;89.30
16821;BME280;8527;49.740;6.604;2023-02-04T22:22:10;101823.97;;;6.99;89.61
16821;BME280;8527;49.740;6.604;2023-02-04T22:27:08;101825.03;;;6.97;89.20
16821;BME280;8527;49.740;6.604;2023-02-04T22:32:07;101820.97;;;6.91;89.17
16821;BME280;8527;49.740;6.604;2023-02-04T22:37:06;101829.06;;;6.88;89.66
16821;BME280;8527;49.740;6.604;2023-02-04T22:42:10;101836.22;;;6.86;89.78
16821;BME280;8527;49.740;6.604;2023-02-04T22:47:08;101826.53;;;6.86;89.77
16821;BME280;8527;49.740;6.604;2023-02-04T22:52:07;101830.38;;;6.81;90.61
16821;BME280;8527;49.740;6.604;2023-02-04T22:57:08;101828.03;;;6.90;90.21
16821;BME280;8527;49.740;6.604;2023-02-04T23:02:07;101830.38;;;6.81;90.58
16821;BME280;8527;49.740;6.604;2023-02-04T23:07:06;101840.66;;;6.85;91.22
16821;BME280;8527;49.740;6.604;2023-02-04T23:12:04;101835.72;;;6.79;90.91
16821;BME280;8527;49.740;6.604;2023-02-04T23:17:13;101830.19;;;6.84;90.74
16821;BME280;8527;49.740;6.604;2023-02-04T23:22:12;101826.03;;;6.80;90.68
16821;BME280;8527;49.740;6.604;2023-02-04T23:27:11;101828.50;;;6.83;90.65
16821;BME280;8527;49.740;6.604;2023-02-04T23:32:13;101819.41;;;6.72;90.88
16821;BME280;8527;49.740;6.604;2023-02-04T23:37:12;101819.69;;;6.68;91.73
16821;BME280;8527;49.740;6.604;2023-02-04T23:42:11;101817.81;;;6.70;91.78
16821;BME280;8527;49.740;6.604;2023-02-04T23:47:11;101821.78;;;6.77;91.47
16821;BME280;8527;49.740;6.604;2023-02-04T23:52:13;101824.81;;;6.71;92.44
16821;BME280;8527;49.740;6.604;2023-02-04T23:57:11;101834.38;;;6.57;93.92
